sensor_id;sensor_type;location;lat;lon;timestamp;temperature;humidity
12602;DHT22;30282;16.436;99.370;2023-02-28T00:01:59;16.90;99.90
12602;DHT22;30282;16.436;99.370;2023-02-28T00:04:28;16.90;99.90
12602;DHT22;30282;16.436;99.370;2023-02-28T00:07:02;16.90;99.90
12602;DHT22;30282;16.436;99.370;2023-02-28T00:09:38;16.90;99.90
12602;DHT22;30282;16.436;99.370;2023-02-28T00:12:21;16.90;99.90
12602;DHT22;30282;16.436;99.370;2023-02-28T00:14:53;17.00;99.90
12602;DHT22;30282;16.436;99.370;2023-02-28T00:17:24;17.10;99.90
12602;DHT22;30282;16.436;99.370;2023-02-28T00:19:53;17.10;99.90
12602;DHT22;30282;16.436;99.370;2023-02-28T00:22:24;17.10;99.90
12602;DHT22;30282;16.436;99.370;2023-02-28T00:24:53;17.10;99.90
12602;DHT22;30282;16.436;99.370;2023-02-28T00:27:21;17.10;99.90
12602;DHT22;30282;16.436;99.370;2023-02-28T00:29:50;17.20;99.90
12602;DHT22;30282;16.436;99.370;2023-02-28T00:32:20;17.30;99.90
12602;DHT22;30282;16.436;99.370;2023-02-28T00:34:49;17.40;99.90
12602;DHT22;30282;16.436;99.370;2023-02-28T00:37:19;17.50;99.90
12602;DHT22;30282;16.436;99.370;2023-02-28T00:39:49;17.50;99.90
12602;DHT22;30282;16.436;99.370;2023-02-28T00:42:18;17.60;99.90
12602;DHT22;30282;16.436;99.370;2023-02-28T00:44:47;17.70;99.90
12602;DHT22;30282;16.436;99.370;2023-02-28T00:47:16;17.70;99.90
12602;DHT22;30282;16.436;99.370;2023-02-28T00:49:45;17.80;99.90
12602;DHT22;30282;16.436;99.370;2023-02-28T00:52:14;17.90;99.90
12602;DHT22;30282;16.436;99.370;2023-02-28T00:54:43;18.00;99.90
12602;DHT22;30282;16.436;99.370;2023-02-28T00:57:13;18.10;99.90
12602;DHT22;30282;16.436;99.370;2023-02-28T00:59:42;18.30;99.90
12602;DHT22;30282;16.436;99.370;2023-02-28T01:02:11;18.30;99.90
12602;DHT22;30282;16.436;99.370;2023-02-28T01:04:40;18.40;99.90
12602;DHT22;30282;16.436;99.370;2023-02-28T01:07:09;18.60;99.90
12602;DHT22;30282;16.436;99.370;2023-02-28T01:09:38;18.70;99.90
12602;DHT22;30282;16.436;99.370;2023-02-28T01:12:08;18.80;99.90
12602;DHT22;30282;16.436;99.370;2023-02-28T01:14:47;18.90;99.90
12602;DHT22;30282;16.436;99.370;2023-02-28T01:17:16;19.00;99.90
12602;DHT22;30282;16.436;99.370;2023-02-28T01:19:45;19.10;99.90
12602;DHT22;30282;16.436;99.370;2023-02-28T01:22:14;19.30;99.90
12602;DHT22;30282;16.436;99.370;2023-02-28T01:24:43;19.40;99.90
12602;DHT22;30282;16.436;99.370;2023-02-28T01:27:12;19.50;99.90
12602;DHT22;30282;16.436;99.370;2023-02-28T01:29:41;19.70;99.90
12602;DHT22;30282;16.436;99.370;2023-02-28T01:32:11;19.80;99.90
12602;DHT22;30282;16.436;99.370;2023-02-28T01:34:40;19.90;99.90
12602;DHT22;30282;16.436;99.370;2023-02-28T01:37:09;20.10;99.90
12602;DHT22;30282;16.436;99.370;2023-02-28T01:39:38;20.20;99.90
12602;DHT22;30282;16.436;99.370;2023-02-28T01:42:09;20.30;99.90
12602;DHT22;30282;16.436;99.370;2023-02-28T01:47:44;20.70;99.90
12602;DHT22;30282;16.436;99.370;2023-02-28T01:50:16;20.80;99.90
12602;DHT22;30282;16.436;99.370;2023-02-28T01:52:47;20.90;99.90
12602;DHT22;30282;16.436;99.370;2023-02-28T01:55:19;21.10;99.90
12602;DHT22;30282;16.436;99.370;2023-02-28T01:57:50;21.20;99.90
12602;DHT22;30282;16.436;99.370;2023-02-28T02:00:23;21.30;99.90
12602;DHT22;30282;16.436;99.370;2023-02-28T02:02:58;21.50;99.90
12602;DHT22;30282;16.436;99.370;2023-02-28T02:05:29;21.70;99.90
12602;DHT22;30282;16.436;99.370;2023-02-28T02:08:03;21.80;99.90
12602;DHT22;30282;16.436;99.370;2023-02-28T02:10:36;22.00;99.90
12602;DHT22;30282;16.436;99.370;2023-02-28T02:13:27;22.20;99.90
12602;DHT22;30282;16.436;99.370;2023-02-28T02:16:06;22.40;99.90
12602;DHT22;30282;16.436;99.370;2023-02-28T02:18:43;22.60;99.90
12602;DHT22;30282;16.436;99.370;2023-02-28T02:21:31;22.70;99.90
12602;DHT22;30282;16.436;99.370;2023-02-28T02:33:06;23.40;99.90
12602;DHT22;30282;16.436;99.370;2023-02-28T02:35:45;23.60;99.90
12602;DHT22;30282;16.436;99.370;2023-02-28T02:38:23;23.70;99.90
12602;DHT22;30282;16.436;99.370;2023-02-28T02:40:59;23.90;99.90
12602;DHT22;30282;16.436;99.370;2023-02-28T02:43:34;24.10;99.90
12602;DHT22;30282;16.436;99.370;2023-02-28T02:46:08;24.20;99.90
12602;DHT22;30282;16.436;99.370;2023-02-28T02:48:41;24.30;99.90
12602;DHT22;30282;16.436;99.370;2023-02-28T02:51:14;24.50;99.90
12602;DHT22;30282;16.436;99.370;2023-02-28T02:53:48;24.60;99.90
12602;DHT22;30282;16.436;99.370;2023-02-28T02:56:21;24.80;99.90
12602;DHT22;30282;16.436;99.370;2023-02-28T02:58:52;24.90;99.90
12602;DHT22;30282;16.436;99.370;2023-02-28T03:01:24;25.10;99.90
12602;DHT22;30282;16.436;99.370;2023-02-28T03:03:57;25.20;99.90
12602;DHT22;30282;16.436;99.370;2023-02-28T03:06:28;25.30;99.90
12602;DHT22;30282;16.436;99.370;2023-02-28T03:08:57;25.50;99.90
12602;DHT22;30282;16.436;99.370;2023-02-28T03:11:28;25.70;99.90
12602;DHT22;30282;16.436;99.370;2023-02-28T03:14:09;25.80;99.90
12602;DHT22;30282;16.436;99.370;2023-02-28T03:16:56;25.90;99.90
12602;DHT22;30282;16.436;99.370;2023-02-28T03:19:37;26.10;99.90
12602;DHT22;30282;16.436;99.370;2023-02-28T03:22:26;26.20;99.90
12602;DHT22;30282;16.436;99.370;2023-02-28T03:25:06;26.40;99.90
12602;DHT22;30282;16.436;99.370;2023-02-28T03:27:40;26.50;99.90
12602;DHT22;30282;16.436;99.370;2023-02-28T03:30:16;26.70;99.90
12602;DHT22;30282;16.436;99.370;2023-02-28T03:32:54;26.80;99.90
12602;DHT22;30282;16.436;99.370;2023-02-28T03:35:25;26.90;99.90
12602;DHT22;30282;16.436;99.370;2023-02-28T03:38:03;27.00;99.90
12602;DHT22;30282;16.436;99.370;2023-02-28T03:40:35;27.10;99.90
12602;DHT22;30282;16.436;99.370;2023-02-28T03:43:11;27.30;99.90
12602;DHT22;30282;16.436;99.370;2023-02-28T03:45:42;27.50;99.90
12602;DHT22;30282;16.436;99.370;2023-02-28T03:48:15;27.60;99.90
12602;DHT22;30282;16.436;99.370;2023-02-28T03:50:47;27.80;99.90
12602;DHT22;30282;16.436;99.370;2023-02-28T03:53:22;27.90;99.90
12602;DHT22;30282;16.436;99.370;2023-02-28T03:55:55;28.00;99.90
12602;DHT22;30282;16.436;99.370;2023-02-28T03:58:29;28.20;99.90
12602;DHT22;30282;16.436;99.370;2023-02-28T04:01:03;28.20;99.90
12602;DHT22;30282;16.436;99.370;2023-02-28T04:03:36;28.40;99.90
12602;DHT22;30282;16.436;99.370;2023-02-28T04:06:08;28.50;99.90
12602;DHT22;30282;16.436;99.370;2023-02-28T04:08:43;28.80;99.90
12602;DHT22;30282;16.436;99.370;2023-02-28T04:11:19;29.00;99.90
12602;DHT22;30282;16.436;99.370;2023-02-28T04:13:49;29.00;99.90
12602;DHT22;30282;16.436;99.370;2023-02-28T04:16:18;29.10;99.90
12602;DHT22;30282;16.436;99.370;2023-02-28T04:18:46;29.00;99.90
12602;DHT22;30282;16.436;99.370;2023-02-28T04:21:15;29.00;99.90
12602;DHT22;30282;16.436;99.370;2023-02-28T04:23:48;29.10;99.90
12602;DHT22;30282;16.436;99.370;2023-02-28T04:26:17;29.20;99.90
12602;DHT22;30282;16.436;99.370;2023-02-28T04:28:46;29.40;99.90
12602;DHT22;30282;16.436;99.370;2023-02-28T04:31:15;29.40;99.90
12602;DHT22;30282;16.436;99.370;2023-02-28T04:33:44;29.50;99.90
12602;DHT22;30282;16.436;99.370;2023-02-28T04:36:13;29.60;99.90
12602;DHT22;30282;16.436;99.370;2023-02-28T04:38:44;29.60;99.90
12602;DHT22;30282;16.436;99.370;2023-02-28T04:41:16;29.80;99.90
12602;DHT22;30282;16.436;99.370;2023-02-28T04:43:45;29.70;99.90
12602;DHT22;30282;16.436;99.370;2023-02-28T04:46:13;29.60;99.90
12602;DHT22;30282;16.436;99.370;2023-02-28T04:48:42;29.60;99.90
12602;DHT22;30282;16.436;99.370;2023-02-28T04:51:13;29.60;99.90
12602;DHT22;30282;16.436;99.370;2023-02-28T04:53:42;29.70;99.90
12602;DHT22;30282;16.436;99.370;2023-02-28T04:56:14;29.80;99.90
12602;DHT22;30282;16.436;99.370;2023-02-28T04:58:44;29.80;99.90
12602;DHT22;30282;16.436;99.370;2023-02-28T05:01:25;30.00;99.90
12602;DHT22;30282;16.436;99.370;2023-02-28T05:03:56;30.10;99.90
12602;DHT22;30282;16.436;99.370;2023-02-28T05:06:26;30.20;99.90
12602;DHT22;30282;16.436;99.370;2023-02-28T05:08:55;30.30;99.90
12602;DHT22;30282;16.436;99.370;2023-02-28T05:11:27;30.20;99.90
12602;DHT22;30282;16.436;99.370;2023-02-28T05:14:01;30.00;99.90
12602;DHT22;30282;16.436;99.370;2023-02-28T05:16:30;30.10;99.90
12602;DHT22;30282;16.436;99.370;2023-02-28T05:18:59;30.30;99.90
12602;DHT22;30282;16.436;99.370;2023-02-28T05:21:29;30.30;99.90
12602;DHT22;30282;16.436;99.370;2023-02-28T05:23:59;30.30;99.90
12602;DHT22;30282;16.436;99.370;2023-02-28T05:26:31;30.50;99.90
12602;DHT22;30282;16.436;99.370;2023-02-28T05:29:02;30.80;99.90
12602;DHT22;30282;16.436;99.370;2023-02-28T05:31:31;31.00;99.90
12602;DHT22;30282;16.436;99.370;2023-02-28T05:34:00;31.20;99.90
12602;DHT22;30282;16.436;99.370;2023-02-28T05:36:30;31.10;99.90
12602;DHT22;30282;16.436;99.370;2023-02-28T05:38:59;31.00;99.60
12602;DHT22;30282;16.436;99.370;2023-02-28T05:41:31;31.10;99.60
12602;DHT22;30282;16.436;99.370;2023-02-28T05:44:00;31.00;99.90
12602;DHT22;30282;16.436;99.370;2023-02-28T05:46:29;31.00;99.50
12602;DHT22;30282;16.436;99.370;2023-02-28T05:48:58;31.00;99.90
12602;DHT22;30282;16.436;99.370;2023-02-28T05:51:30;31.20;99.90
12602;DHT22;30282;16.436;99.370;2023-02-28T05:54:01;31.10;99.70
12602;DHT22;30282;16.436;99.370;2023-02-28T05:56:37;31.10;99.30
12602;DHT22;30282;16.436;99.370;2023-02-28T05:59:07;31.20;99.00
12602;DHT22;30282;16.436;99.370;2023-02-28T06:01:37;31.50;99.40
12602;DHT22;30282;16.436;99.370;2023-02-28T06:04:07;31.50;99.20
12602;DHT22;30282;16.436;99.370;2023-02-28T06:06:36;31.50;98.90
12602;DHT22;30282;16.436;99.370;2023-02-28T06:09:06;31.80;97.40
12602;DHT22;30282;16.436;99.370;2023-02-28T06:11:36;31.70;98.20
12602;DHT22;30282;16.436;99.370;2023-02-28T06:14:05;31.60;97.60
12602;DHT22;30282;16.436;99.370;2023-02-28T06:16:35;31.50;97.40
12602;DHT22;30282;16.436;99.370;2023-02-28T06:19:04;31.50;97.50
12602;DHT22;30282;16.436;99.370;2023-02-28T06:21:33;31.60;98.10
12602;DHT22;30282;16.436;99.370;2023-02-28T06:24:02;31.60;97.60
12602;DHT22;30282;16.436;99.370;2023-02-28T06:26:31;31.70;97.40
12602;DHT22;30282;16.436;99.370;2023-02-28T06:29:02;31.90;96.80
12602;DHT22;30282;16.436;99.370;2023-02-28T06:31:31;31.40;96.60
12602;DHT22;30282;16.436;99.370;2023-02-28T06:34:00;31.40;96.70
12602;DHT22;30282;16.436;99.370;2023-02-28T06:36:29;31.60;97.00
12602;DHT22;30282;16.436;99.370;2023-02-28T06:38:58;31.80;98.20
12602;DHT22;30282;16.436;99.370;2023-02-28T06:41:27;32.00;96.30
12602;DHT22;30282;16.436;99.370;2023-02-28T06:43:56;31.90;97.10
12602;DHT22;30282;16.436;99.370;2023-02-28T06:46:27;32.00;95.80
12602;DHT22;30282;16.436;99.370;2023-02-28T06:48:56;32.00;96.00
12602;DHT22;30282;16.436;99.370;2023-02-28T06:51:25;32.00;95.60
12602;DHT22;30282;16.436;99.370;2023-02-28T06:53:54;32.10;96.50
12602;DHT22;30282;16.436;99.370;2023-02-28T06:56:23;32.10;95.90
12602;DHT22;30282;16.436;99.370;2023-02-28T06:58:52;32.00;95.30
12602;DHT22;30282;16.436;99.370;2023-02-28T07:01:21;32.00;96.20
12602;DHT22;30282;16.436;99.370;2023-02-28T07:03:52;32.00;96.40
12602;DHT22;30282;16.436;99.370;2023-02-28T07:06:22;32.00;95.90
12602;DHT22;30282;16.436;99.370;2023-02-28T07:08:51;32.20;95.80
12602;DHT22;30282;16.436;99.370;2023-02-28T07:11:21;31.90;94.60
12602;DHT22;30282;16.436;99.370;2023-02-28T07:13:52;31.90;95.00
12602;DHT22;30282;16.436;99.370;2023-02-28T07:16:22;32.10;94.80
12602;DHT22;30282;16.436;99.370;2023-02-28T07:18:54;32.10;94.10
12602;DHT22;30282;16.436;99.370;2023-02-28T07:21:23;32.00;94.40
12602;DHT22;30282;16.436;99.370;2023-02-28T07:23:52;32.10;94.30
12602;DHT22;30282;16.436;99.370;2023-02-28T07:26:21;32.20;94.50
12602;DHT22;30282;16.436;99.370;2023-02-28T07:28:50;32.00;93.20
12602;DHT22;30282;16.436;99.370;2023-02-28T07:31:20;31.90;93.00
12602;DHT22;30282;16.436;99.370;2023-02-28T07:33:49;31.80;93.30
12602;DHT22;30282;16.436;99.370;2023-02-28T07:36:19;31.80;93.40
12602;DHT22;30282;16.436;99.370;2023-02-28T07:38:48;31.90;93.80
12602;DHT22;30282;16.436;99.370;2023-02-28T07:41:19;31.90;93.00
12602;DHT22;30282;16.436;99.370;2023-02-28T07:43:49;31.90;92.70
12602;DHT22;30282;16.436;99.370;2023-02-28T07:46:18;32.10;92.30
12602;DHT22;30282;16.436;99.370;2023-02-28T07:48:47;32.00;91.90
12602;DHT22;30282;16.436;99.370;2023-02-28T07:51:18;32.10;92.20
12602;DHT22;30282;16.436;99.370;2023-02-28T07:53:47;32.20;91.90
12602;DHT22;30282;16.436;99.370;2023-02-28T07:56:16;32.30;91.40
12602;DHT22;30282;16.436;99.370;2023-02-28T07:58:45;32.30;90.30
12602;DHT22;30282;16.436;99.370;2023-02-28T08:01:14;32.10;90.00
12602;DHT22;30282;16.436;99.370;2023-02-28T08:03:43;32.00;90.10
12602;DHT22;30282;16.436;99.370;2023-02-28T08:06:18;32.00;90.80
12602;DHT22;30282;16.436;99.370;2023-02-28T08:08:48;32.10;90.50
12602;DHT22;30282;16.436;99.370;2023-02-28T08:11:17;32.20;90.60
12602;DHT22;30282;16.436;99.370;2023-02-28T08:13:46;32.30;88.30
12602;DHT22;30282;16.436;99.370;2023-02-28T08:16:15;32.20;87.70
12602;DHT22;30282;16.436;99.370;2023-02-28T08:18:49;32.20;89.20
12602;DHT22;30282;16.436;99.370;2023-02-28T08:21:20;32.20;90.00
12602;DHT22;30282;16.436;99.370;2023-02-28T08:23:49;32.10;91.10
12602;DHT22;30282;16.436;99.370;2023-02-28T08:26:19;32.10;90.50
12602;DHT22;30282;16.436;99.370;2023-02-28T08:28:48;32.10;91.10
12602;DHT22;30282;16.436;99.370;2023-02-28T08:31:18;32.20;90.20
12602;DHT22;30282;16.436;99.370;2023-02-28T08:33:47;32.20;90.00
12602;DHT22;30282;16.436;99.370;2023-02-28T08:36:20;32.20;90.10
12602;DHT22;30282;16.436;99.370;2023-02-28T08:38:49;32.30;91.10
12602;DHT22;30282;16.436;99.370;2023-02-28T08:41:18;32.30;89.70
12602;DHT22;30282;16.436;99.370;2023-02-28T08:43:47;32.30;90.50
12602;DHT22;30282;16.436;99.370;2023-02-28T08:46:16;32.30;88.50
12602;DHT22;30282;16.436;99.370;2023-02-28T08:48:45;32.20;90.30
12602;DHT22;30282;16.436;99.370;2023-02-28T08:51:18;32.20;88.90
12602;DHT22;30282;16.436;99.370;2023-02-28T08:53:55;32.10;90.60
12602;DHT22;30282;16.436;99.370;2023-02-28T08:56:24;32.20;91.60
12602;DHT22;30282;16.436;99.370;2023-02-28T08:58:55;32.30;89.60
12602;DHT22;30282;16.436;99.370;2023-02-28T09:01:25;32.30;89.20
12602;DHT22;30282;16.436;99.370;2023-02-28T09:03:56;32.20;89.40
12602;DHT22;30282;16.436;99.370;2023-02-28T09:06:26;32.20;91.00
12602;DHT22;30282;16.436;99.370;2023-02-28T09:08:59;32.30;91.40
12602;DHT22;30282;16.436;99.370;2023-02-28T09:11:28;32.20;90.40
12602;DHT22;30282;16.436;99.370;2023-02-28T09:13:58;32.10;91.40
12602;DHT22;30282;16.436;99.370;2023-02-28T09:16:27;32.10;90.70
12602;DHT22;30282;16.436;99.370;2023-02-28T09:18:56;32.10;90.10
12602;DHT22;30282;16.436;99.370;2023-02-28T09:21:25;32.20;90.90
12602;DHT22;30282;16.436;99.370;2023-02-28T09:23:54;32.10;91.20
12602;DHT22;30282;16.436;99.370;2023-02-28T09:26:26;32.10;91.30
12602;DHT22;30282;16.436;99.370;2023-02-28T09:28:56;32.10;90.40
12602;DHT22;30282;16.436;99.370;2023-02-28T09:31:27;32.00;90.80
12602;DHT22;30282;16.436;99.370;2023-02-28T09:33:59;32.00;89.60
12602;DHT22;30282;16.436;99.370;2023-02-28T09:36:28;31.90;89.80
12602;DHT22;30282;16.436;99.370;2023-02-28T09:38:57;31.90;89.10
12602;DHT22;30282;16.436;99.370;2023-02-28T09:41:32;31.90;90.60
12602;DHT22;30282;16.436;99.370;2023-02-28T09:44:09;31.80;91.10
12602;DHT22;30282;16.436;99.370;2023-02-28T09:46:44;31.80;91.80
12602;DHT22;30282;16.436;99.370;2023-02-28T09:49:19;31.70;91.00
12602;DHT22;30282;16.436;99.370;2023-02-28T09:51:59;31.80;91.00
12602;DHT22;30282;16.436;99.370;2023-02-28T09:57:32;31.70;90.30
12602;DHT22;30282;16.436;99.370;2023-02-28T10:00:12;31.70;92.10
12602;DHT22;30282;16.436;99.370;2023-02-28T10:06:00;31.60;93.60
12602;DHT22;30282;16.436;99.370;2023-02-28T10:08:36;31.50;93.00
12602;DHT22;30282;16.436;99.370;2023-02-28T10:11:12;31.50;93.20
12602;DHT22;30282;16.436;99.370;2023-02-28T10:14:04;31.50;93.40
12602;DHT22;30282;16.436;99.370;2023-02-28T10:16:47;31.40;94.20
12602;DHT22;30282;16.436;99.370;2023-02-28T10:19:30;31.40;94.10
12602;DHT22;30282;16.436;99.370;2023-02-28T10:22:03;31.30;95.00
12602;DHT22;30282;16.436;99.370;2023-02-28T10:24:35;31.30;95.20
12602;DHT22;30282;16.436;99.370;2023-02-28T10:27:13;31.20;95.00
12602;DHT22;30282;16.436;99.370;2023-02-28T10:29:45;31.20;95.20
12602;DHT22;30282;16.436;99.370;2023-02-28T10:32:18;31.10;95.20
12602;DHT22;30282;16.436;99.370;2023-02-28T10:34:52;31.00;94.70
12602;DHT22;30282;16.436;99.370;2023-02-28T10:37:21;30.90;94.80
12602;DHT22;30282;16.436;99.370;2023-02-28T10:39:50;30.70;95.00
12602;DHT22;30282;16.436;99.370;2023-02-28T10:42:22;30.60;95.10
12602;DHT22;30282;16.436;99.370;2023-02-28T10:45:12;30.60;95.40
12602;DHT22;30282;16.436;99.370;2023-02-28T10:47:55;30.50;95.50
12602;DHT22;30282;16.436;99.370;2023-02-28T10:50:35;30.40;95.70
12602;DHT22;30282;16.436;99.370;2023-02-28T10:53:31;30.30;95.80
12602;DHT22;30282;16.436;99.370;2023-02-28T10:56:02;30.20;95.90
12602;DHT22;30282;16.436;99.370;2023-02-28T10:58:42;30.10;96.40
12602;DHT22;30282;16.436;99.370;2023-02-28T11:01:17;30.00;96.80
12602;DHT22;30282;16.436;99.370;2023-02-28T11:03:47;29.90;97.00
12602;DHT22;30282;16.436;99.370;2023-02-28T11:06:18;29.80;97.20
12602;DHT22;30282;16.436;99.370;2023-02-28T11:08:52;29.70;97.30
12602;DHT22;30282;16.436;99.370;2023-02-28T11:11:23;29.60;97.50
12602;DHT22;30282;16.436;99.370;2023-02-28T11:14:02;29.40;97.60
12602;DHT22;30282;16.436;99.370;2023-02-28T11:16:36;29.30;97.90
12602;DHT22;30282;16.436;99.370;2023-02-28T11:19:07;29.20;97.70
12602;DHT22;30282;16.436;99.370;2023-02-28T11:21:57;29.20;98.10
12602;DHT22;30282;16.436;99.370;2023-02-28T11:24:28;29.00;97.90
12602;DHT22;30282;16.436;99.370;2023-02-28T11:26:59;29.00;98.00
12602;DHT22;30282;16.436;99.370;2023-02-28T11:29:30;28.90;97.70
12602;DHT22;30282;16.436;99.370;2023-02-28T11:32:12;28.90;98.20
12602;DHT22;30282;16.436;99.370;2023-02-28T11:34:42;28.80;98.50
12602;DHT22;30282;16.436;99.370;2023-02-28T11:37:14;28.70;98.30
12602;DHT22;30282;16.436;99.370;2023-02-28T11:39:44;28.70;98.20
12602;DHT22;30282;16.436;99.370;2023-02-28T11:42:29;28.60;97.60
12602;DHT22;30282;16.436;99.370;2023-02-28T11:45:11;28.50;97.70
12602;DHT22;30282;16.436;99.370;2023-02-28T11:47:48;28.40;97.90
12602;DHT22;30282;16.436;99.370;2023-02-28T11:50:42;28.40;98.30
12602;DHT22;30282;16.436;99.370;2023-02-28T11:53:22;28.30;97.60
12602;DHT22;30282;16.436;99.370;2023-02-28T11:56:01;28.30;97.70
12602;DHT22;30282;16.436;99.370;2023-02-28T11:58:40;28.30;98.30
12602;DHT22;30282;16.436;99.370;2023-02-28T12:04:22;28.10;98.60
12602;DHT22;30282;16.436;99.370;2023-02-28T12:06:57;27.90;98.40
12602;DHT22;30282;16.436;99.370;2023-02-28T12:09:47;27.90;98.80
12602;DHT22;30282;16.436;99.370;2023-02-28T12:12:29;27.80;98.90
12602;DHT22;30282;16.436;99.370;2023-02-28T12:15:17;27.70;99.30
12602;DHT22;30282;16.436;99.370;2023-02-28T12:18:03;27.70;99.50
12602;DHT22;30282;16.436;99.370;2023-02-28T12:20:43;27.70;99.90
12602;DHT22;30282;16.436;99.370;2023-02-28T12:23:36;27.60;99.90
12602;DHT22;30282;16.436;99.370;2023-02-28T12:26:15;27.60;99.90
12602;DHT22;30282;16.436;99.370;2023-02-28T12:28:51;27.50;99.90
12602;DHT22;30282;16.436;99.370;2023-02-28T12:31:24;27.30;99.90
12602;DHT22;30282;16.436;99.370;2023-02-28T12:33:59;27.10;99.90
12602;DHT22;30282;16.436;99.370;2023-02-28T12:36:31;27.00;99.90
12602;DHT22;30282;16.436;99.370;2023-02-28T12:39:04;27.00;99.90
12602;DHT22;30282;16.436;99.370;2023-02-28T12:41:39;26.90;99.90
12602;DHT22;30282;16.436;99.370;2023-02-28T12:44:13;26.80;99.90
12602;DHT22;30282;16.436;99.370;2023-02-28T12:46:46;26.70;99.90
12602;DHT22;30282;16.436;99.370;2023-02-28T12:49:22;26.60;99.90
12602;DHT22;30282;16.436;99.370;2023-02-28T12:51:54;26.50;99.90
12602;DHT22;30282;16.436;99.370;2023-02-28T12:54:26;26.30;99.90
12602;DHT22;30282;16.436;99.370;2023-02-28T12:57:02;26.20;99.90
12602;DHT22;30282;16.436;99.370;2023-02-28T12:59:42;26.10;99.90
12602;DHT22;30282;16.436;99.370;2023-02-28T13:05:38;26.00;99.90
12602;DHT22;30282;16.436;99.370;2023-02-28T13:08:25;25.60;99.90
12602;DHT22;30282;16.436;99.370;2023-02-28T13:10:57;25.50;99.90
12602;DHT22;30282;16.436;99.370;2023-02-28T13:13:29;25.50;99.90
12602;DHT22;30282;16.436;99.370;2023-02-28T13:16:03;25.50;99.90
12602;DHT22;30282;16.436;99.370;2023-02-28T13:18:35;25.40;99.90
12602;DHT22;30282;16.436;99.370;2023-02-28T13:21:07;25.30;99.90
12602;DHT22;30282;16.436;99.370;2023-02-28T13:30:02;25.40;99.90
12602;DHT22;30282;16.436;99.370;2023-02-28T13:33:27;25.30;99.90
12602;DHT22;30282;16.436;99.370;2023-02-28T13:36:22;25.30;99.90
12602;DHT22;30282;16.436;99.370;2023-02-28T13:38:52;25.10;99.90
12602;DHT22;30282;16.436;99.370;2023-02-28T13:41:41;25.00;99.90
12602;DHT22;30282;16.436;99.370;2023-02-28T13:44:11;24.90;99.90
12602;DHT22;30282;16.436;99.370;2023-02-28T13:49:53;24.70;99.90
12602;DHT22;30282;16.436;99.370;2023-02-28T13:52:24;24.50;99.90
12602;DHT22;30282;16.436;99.370;2023-02-28T13:58:09;24.60;99.90
12602;DHT22;30282;16.436;99.370;2023-02-28T14:01:05;24.60;99.90
12602;DHT22;30282;16.436;99.370;2023-02-28T14:06:47;24.50;99.90
12602;DHT22;30282;16.436;99.370;2023-02-28T14:09:21;24.50;99.90
12602;DHT22;30282;16.436;99.370;2023-02-28T14:11:52;24.50;99.90
12602;DHT22;30282;16.436;99.370;2023-02-28T14:14:55;24.50;99.90
12602;DHT22;30282;16.436;99.370;2023-02-28T14:17:25;24.50;99.90
12602;DHT22;30282;16.436;99.370;2023-02-28T14:19:54;24.50;99.90
12602;DHT22;30282;16.436;99.370;2023-02-28T14:22:44;24.60;99.90
12602;DHT22;30282;16.436;99.370;2023-02-28T14:25:26;24.60;99.90
12602;DHT22;30282;16.436;99.370;2023-02-28T14:28:08;24.50;99.90
12602;DHT22;30282;16.436;99.370;2023-02-28T14:31:03;24.50;99.90
12602;DHT22;30282;16.436;99.370;2023-02-28T14:33:48;24.40;99.90
12602;DHT22;30282;16.436;99.370;2023-02-28T14:36:26;24.00;99.90
12602;DHT22;30282;16.436;99.370;2023-02-28T14:39:05;23.80;99.90
12602;DHT22;30282;16.436;99.370;2023-02-28T14:41:36;23.80;99.90
12602;DHT22;30282;16.436;99.370;2023-02-28T14:44:15;23.80;99.90
12602;DHT22;30282;16.436;99.370;2023-02-28T14:46:49;23.80;99.90
12602;DHT22;30282;16.436;99.370;2023-02-28T14:49:23;23.80;99.90
12602;DHT22;30282;16.436;99.370;2023-02-28T14:52:05;23.70;99.90
12602;DHT22;30282;16.436;99.370;2023-02-28T14:54:41;23.70;99.90
12602;DHT22;30282;16.436;99.370;2023-02-28T14:57:22;23.70;99.90
12602;DHT22;30282;16.436;99.370;2023-02-28T14:59:59;23.70;99.90
12602;DHT22;30282;16.436;99.370;2023-02-28T15:02:34;23.60;99.90
12602;DHT22;30282;16.436;99.370;2023-02-28T15:05:25;23.60;99.90
12602;DHT22;30282;16.436;99.370;2023-02-28T15:08:12;23.40;99.90
12602;DHT22;30282;16.436;99.370;2023-02-28T15:10:44;23.20;99.90
12602;DHT22;30282;16.436;99.370;2023-02-28T15:13:15;22.90;99.90
12602;DHT22;30282;16.436;99.370;2023-02-28T15:15:49;22.60;99.90
12602;DHT22;30282;16.436;99.370;2023-02-28T15:18:29;22.40;99.90
12602;DHT22;30282;16.436;99.370;2023-02-28T15:21:03;22.30;99.90
12602;DHT22;30282;16.436;99.370;2023-02-28T15:23:37;22.10;99.90
12602;DHT22;30282;16.436;99.370;2023-02-28T15:26:13;22.20;99.90
12602;DHT22;30282;16.436;99.370;2023-02-28T15:28:58;22.30;99.90
12602;DHT22;30282;16.436;99.370;2023-02-28T15:31:48;22.40;99.90
12602;DHT22;30282;16.436;99.370;2023-02-28T15:34:28;22.40;99.90
12602;DHT22;30282;16.436;99.370;2023-02-28T15:37:05;22.30;99.90
12602;DHT22;30282;16.436;99.370;2023-02-28T15:39:45;22.30;99.90
12602;DHT22;30282;16.436;99.370;2023-02-28T15:42:30;22.30;99.90
12602;DHT22;30282;16.436;99.370;2023-02-28T15:45:30;22.30;99.90
12602;DHT22;30282;16.436;99.370;2023-02-28T15:48:16;22.30;99.90
12602;DHT22;30282;16.436;99.370;2023-02-28T15:50:52;22.40;99.90
12602;DHT22;30282;16.436;99.370;2023-02-28T15:53:30;22.40;99.90
12602;DHT22;30282;16.436;99.370;2023-02-28T15:56:12;22.30;99.90
12602;DHT22;30282;16.436;99.370;2023-02-28T15:58:50;22.10;99.90
12602;DHT22;30282;16.436;99.370;2023-02-28T16:01:27;21.90;99.90
12602;DHT22;30282;16.436;99.370;2023-02-28T16:04:06;21.90;99.90
12602;DHT22;30282;16.436;99.370;2023-02-28T16:06:44;22.00;99.90
12602;DHT22;30282;16.436;99.370;2023-02-28T16:09:20;22.00;99.90
12602;DHT22;30282;16.436;99.370;2023-02-28T16:11:54;22.00;99.90
12602;DHT22;30282;16.436;99.370;2023-02-28T16:14:29;22.00;99.90
12602;DHT22;30282;16.436;99.370;2023-02-28T16:17:07;22.00;99.90
12602;DHT22;30282;16.436;99.370;2023-02-28T16:19:42;22.10;99.90
12602;DHT22;30282;16.436;99.370;2023-02-28T16:22:11;22.00;99.90
12602;DHT22;30282;16.436;99.370;2023-02-28T16:24:43;22.00;99.90
12602;DHT22;30282;16.436;99.370;2023-02-28T16:27:18;22.00;99.90
12602;DHT22;30282;16.436;99.370;2023-02-28T16:29:54;22.00;99.90
12602;DHT22;30282;16.436;99.370;2023-02-28T16:32:23;22.00;99.90
12602;DHT22;30282;16.436;99.370;2023-02-28T16:34:56;22.10;99.90
12602;DHT22;30282;16.436;99.370;2023-02-28T16:37:28;22.10;99.90